sensor_id;sensor_type;location;lat;lon;timestamp;P1;durP1;ratioP1;P2;durP2;ratioP2
28774;SDS011;15926;51.348;6.596;2023-03-31T00:00:44;1.73;;;1.08;;
28774;SDS011;15926;51.348;6.596;2023-03-31T00:03:15;4.53;;;0.80;;
28774;SDS011;15926;51.348;6.596;2023-03-31T00:05:47;3.28;;;1.20;;
28774;SDS011;15926;51.348;6.596;2023-03-31T00:08:17;3.78;;;1.00;;
28774;SDS011;15926;51.348;6.596;2023-03-31T00:10:44;3.40;;;1.08;;
28774;SDS011;15926;51.348;6.596;2023-03-31T00:13:11;6.30;;;1.10;;
28774;SDS011;15926;51.348;6.596;2023-03-31T00:15:37;5.50;;;0.73;;
28774;SDS011;15926;51.348;6.596;2023-03-31T00:18:04;4.32;;;1.17;;
28774;SDS011;15926;51.348;6.596;2023-03-31T00:20:30;3.08;;;1.00;;
28774;SDS011;15926;51.348;6.596;2023-03-31T00:22:57;3.70;;;0.88;;
28774;SDS011;15926;51.348;6.596;2023-03-31T00:25:25;4.75;;;0.95;;
28774;SDS011;15926;51.348;6.596;2023-03-31T00:27:52;3.80;;;0.95;;
28774;SDS011;15926;51.348;6.596;2023-03-31T00:30:18;5.18;;;0.82;;
28774;SDS011;15926;51.348;6.596;2023-03-31T00:32:44;5.60;;;1.05;;
28774;SDS011;15926;51.348;6.596;2023-03-31T00:35:11;3.72;;;0.98;;
28774;SDS011;15926;51.348;6.596;2023-03-31T00:37:37;4.53;;;0.90;;
28774;SDS011;15926;51.348;6.596;2023-03-31T00:40:03;3.28;;;0.80;;
28774;SDS011;15926;51.348;6.596;2023-03-31T00:42:39;5.65;;;0.98;;
28774;SDS011;15926;51.348;6.596;2023-03-31T00:45:17;5.18;;;1.30;;
28774;SDS011;15926;51.348;6.596;2023-03-31T00:48:06;6.60;;;1.20;;
28774;SDS011;15926;51.348;6.596;2023-03-31T00:50:34;3.00;;;0.88;;
28774;SDS011;15926;51.348;6.596;2023-03-31T00:53:04;2.30;;;1.02;;
28774;SDS011;15926;51.348;6.596;2023-03-31T00:55:36;4.85;;;1.55;;
28774;SDS011;15926;51.348;6.596;2023-03-31T00:58:04;3.90;;;1.30;;
28774;SDS011;15926;51.348;6.596;2023-03-31T01:00:32;5.63;;;1.13;;
28774;SDS011;15926;51.348;6.596;2023-03-31T01:02:58;4.65;;;1.00;;
28774;SDS011;15926;51.348;6.596;2023-03-31T01:07:53;3.95;;;1.05;;
28774;SDS011;15926;51.348;6.596;2023-03-31T01:10:20;2.83;;;1.20;;
28774;SDS011;15926;51.348;6.596;2023-03-31T01:12:48;4.97;;;1.27;;
28774;SDS011;15926;51.348;6.596;2023-03-31T01:15:14;2.38;;;1.00;;
28774;SDS011;15926;51.348;6.596;2023-03-31T01:17:40;5.38;;;1.05;;
28774;SDS011;15926;51.348;6.596;2023-03-31T01:22:57;5.13;;;1.30;;
28774;SDS011;15926;51.348;6.596;2023-03-31T01:33:25;3.42;;;1.20;;
28774;SDS011;15926;51.348;6.596;2023-03-31T01:46:26;7.57;;;1.52;;
28774;SDS011;15926;51.348;6.596;2023-03-31T01:48:58;5.00;;;1.13;;
28774;SDS011;15926;51.348;6.596;2023-03-31T01:56:31;2.38;;;0.95;;
28774;SDS011;15926;51.348;6.596;2023-03-31T01:58:59;1.98;;;1.00;;
28774;SDS011;15926;51.348;6.596;2023-03-31T02:01:31;2.50;;;0.98;;
28774;SDS011;15926;51.348;6.596;2023-03-31T02:04:05;4.93;;;0.98;;
28774;SDS011;15926;51.348;6.596;2023-03-31T02:06:33;2.97;;;1.10;;
28774;SDS011;15926;51.348;6.596;2023-03-31T02:09:01;8.38;;;1.30;;
28774;SDS011;15926;51.348;6.596;2023-03-31T02:11:28;5.90;;;1.35;;
28774;SDS011;15926;51.348;6.596;2023-03-31T02:13:56;7.82;;;1.40;;
28774;SDS011;15926;51.348;6.596;2023-03-31T02:16:25;7.18;;;1.13;;
28774;SDS011;15926;51.348;6.596;2023-03-31T02:18:53;7.63;;;1.33;;
28774;SDS011;15926;51.348;6.596;2023-03-31T02:21:26;9.20;;;1.17;;
28774;SDS011;15926;51.348;6.596;2023-03-31T02:23:52;8.18;;;1.58;;
28774;SDS011;15926;51.348;6.596;2023-03-31T02:26:20;6.10;;;1.30;;
28774;SDS011;15926;51.348;6.596;2023-03-31T02:28:48;6.15;;;1.40;;
28774;SDS011;15926;51.348;6.596;2023-03-31T02:31:19;7.85;;;1.58;;
28774;SDS011;15926;51.348;6.596;2023-03-31T02:33:47;8.65;;;1.52;;
28774;SDS011;15926;51.348;6.596;2023-03-31T02:36:13;15.40;;;2.33;;
28774;SDS011;15926;51.348;6.596;2023-03-31T02:38:42;13.90;;;2.10;;
28774;SDS011;15926;51.348;6.596;2023-03-31T02:41:08;10.73;;;1.35;;
28774;SDS011;15926;51.348;6.596;2023-03-31T02:43:35;11.25;;;1.98;;
28774;SDS011;15926;51.348;6.596;2023-03-31T02:46:01;11.32;;;1.90;;
28774;SDS011;15926;51.348;6.596;2023-03-31T02:48:28;12.48;;;1.90;;
28774;SDS011;15926;51.348;6.596;2023-03-31T02:51:12;8.32;;;1.65;;
28774;SDS011;15926;51.348;6.596;2023-03-31T02:53:56;13.57;;;2.33;;
28774;SDS011;15926;51.348;6.596;2023-03-31T03:01:52;12.07;;;1.88;;
28774;SDS011;15926;51.348;6.596;2023-03-31T03:06:56;15.45;;;2.38;;
28774;SDS011;15926;51.348;6.596;2023-03-31T03:09:31;8.90;;;1.92;;
28774;SDS011;15926;51.348;6.596;2023-03-31T03:14:37;11.13;;;1.80;;
28774;SDS011;15926;51.348;6.596;2023-03-31T03:17:05;9.80;;;1.77;;
28774;SDS011;15926;51.348;6.596;2023-03-31T03:19:32;11.88;;;1.80;;
28774;SDS011;15926;51.348;6.596;2023-03-31T03:21:58;14.18;;;1.92;;
28774;SDS011;15926;51.348;6.596;2023-03-31T03:24:24;9.57;;;1.80;;
28774;SDS011;15926;51.348;6.596;2023-03-31T03:29:19;8.85;;;1.52;;
28774;SDS011;15926;51.348;6.596;2023-03-31T03:31:45;10.65;;;1.73;;
28774;SDS011;15926;51.348;6.596;2023-03-31T03:34:11;11.00;;;1.92;;
28774;SDS011;15926;51.348;6.596;2023-03-31T03:36:37;14.38;;;2.08;;
28774;SDS011;15926;51.348;6.596;2023-03-31T03:39:04;8.32;;;1.50;;
28774;SDS011;15926;51.348;6.596;2023-03-31T03:41:31;12.52;;;2.05;;
28774;SDS011;15926;51.348;6.596;2023-03-31T03:43:57;9.77;;;2.50;;
28774;SDS011;15926;51.348;6.596;2023-03-31T03:46:24;15.77;;;1.80;;
28774;SDS011;15926;51.348;6.596;2023-03-31T03:48:50;8.60;;;1.73;;
28774;SDS011;15926;51.348;6.596;2023-03-31T03:51:16;7.78;;;2.13;;
28774;SDS011;15926;51.348;6.596;2023-03-31T03:53:42;10.73;;;2.53;;
28774;SDS011;15926;51.348;6.596;2023-03-31T03:56:08;7.45;;;1.88;;
28774;SDS011;15926;51.348;6.596;2023-03-31T03:58:34;5.43;;;1.80;;
28774;SDS011;15926;51.348;6.596;2023-03-31T04:01:00;9.82;;;2.20;;
28774;SDS011;15926;51.348;6.596;2023-03-31T04:03:26;6.90;;;1.25;;
28774;SDS011;15926;51.348;6.596;2023-03-31T04:05:52;10.10;;;1.35;;
28774;SDS011;15926;51.348;6.596;2023-03-31T04:08:18;5.88;;;1.23;;
28774;SDS011;15926;51.348;6.596;2023-03-31T04:10:44;6.45;;;1.48;;
28774;SDS011;15926;51.348;6.596;2023-03-31T04:13:12;10.32;;;1.58;;
28774;SDS011;15926;51.348;6.596;2023-03-31T04:15:38;14.80;;;1.95;;
28774;SDS011;15926;51.348;6.596;2023-03-31T04:18:04;6.45;;;1.20;;
28774;SDS011;15926;51.348;6.596;2023-03-31T04:20:30;7.03;;;1.40;;
28774;SDS011;15926;51.348;6.596;2023-03-31T04:22:56;11.43;;;2.53;;
28774;SDS011;15926;51.348;6.596;2023-03-31T04:25:22;6.63;;;1.30;;
28774;SDS011;15926;51.348;6.596;2023-03-31T04:27:49;6.38;;;2.25;;
28774;SDS011;15926;51.348;6.596;2023-03-31T04:30:19;5.88;;;1.17;;
28774;SDS011;15926;51.348;6.596;2023-03-31T04:32:52;4.07;;;1.27;;
28774;SDS011;15926;51.348;6.596;2023-03-31T04:35:19;7.78;;;1.27;;
28774;SDS011;15926;51.348;6.596;2023-03-31T04:37:49;6.43;;;2.17;;
28774;SDS011;15926;51.348;6.596;2023-03-31T04:40:16;4.38;;;1.40;;
28774;SDS011;15926;51.348;6.596;2023-03-31T04:42:43;7.07;;;1.30;;
28774;SDS011;15926;51.348;6.596;2023-03-31T04:45:10;5.70;;;1.33;;
28774;SDS011;15926;51.348;6.596;2023-03-31T04:47:36;8.55;;;1.40;;
28774;SDS011;15926;51.348;6.596;2023-03-31T04:50:02;4.90;;;1.05;;
28774;SDS011;15926;51.348;6.596;2023-03-31T04:52:28;6.55;;;1.38;;
28774;SDS011;15926;51.348;6.596;2023-03-31T04:54:54;4.55;;;1.40;;
28774;SDS011;15926;51.348;6.596;2023-03-31T04:57:20;6.90;;;1.35;;
28774;SDS011;15926;51.348;6.596;2023-03-31T04:59:46;7.32;;;1.25;;
28774;SDS011;15926;51.348;6.596;2023-03-31T05:02:12;10.02;;;1.40;;
28774;SDS011;15926;51.348;6.596;2023-03-31T05:04:39;6.03;;;1.40;;
28774;SDS011;15926;51.348;6.596;2023-03-31T05:07:05;5.30;;;0.82;;
28774;SDS011;15926;51.348;6.596;2023-03-31T05:09:31;3.47;;;1.10;;
28774;SDS011;15926;51.348;6.596;2023-03-31T05:11:57;9.27;;;1.52;;
28774;SDS011;15926;51.348;6.596;2023-03-31T05:14:23;5.72;;;1.20;;
28774;SDS011;15926;51.348;6.596;2023-03-31T05:16:49;3.15;;;1.02;;
28774;SDS011;15926;51.348;6.596;2023-03-31T05:19:16;5.45;;;1.05;;
28774;SDS011;15926;51.348;6.596;2023-03-31T05:21:42;6.53;;;2.58;;
28774;SDS011;15926;51.348;6.596;2023-03-31T05:24:08;8.25;;;1.50;;
28774;SDS011;15926;51.348;6.596;2023-03-31T05:26:34;5.45;;;1.10;;
28774;SDS011;15926;51.348;6.596;2023-03-31T05:29:00;2.65;;;1.40;;
28774;SDS011;15926;51.348;6.596;2023-03-31T05:31:26;6.93;;;1.17;;
28774;SDS011;15926;51.348;6.596;2023-03-31T05:33:52;3.95;;;1.50;;
28774;SDS011;15926;51.348;6.596;2023-03-31T05:36:18;5.43;;;1.10;;
28774;SDS011;15926;51.348;6.596;2023-03-31T05:38:47;4.10;;;1.10;;
28774;SDS011;15926;51.348;6.596;2023-03-31T05:41:13;6.55;;;1.08;;
28774;SDS011;15926;51.348;6.596;2023-03-31T05:43:40;3.60;;;1.23;;
28774;SDS011;15926;51.348;6.596;2023-03-31T05:46:07;3.50;;;0.80;;
28774;SDS011;15926;51.348;6.596;2023-03-31T05:48:33;3.30;;;0.90;;
28774;SDS011;15926;51.348;6.596;2023-03-31T05:51:01;4.10;;;1.00;;
28774;SDS011;15926;51.348;6.596;2023-03-31T05:53:27;6.50;;;0.98;;
28774;SDS011;15926;51.348;6.596;2023-03-31T05:55:56;6.70;;;1.10;;
28774;SDS011;15926;51.348;6.596;2023-03-31T05:58:23;1.38;;;0.73;;
28774;SDS011;15926;51.348;6.596;2023-03-31T06:00:49;3.58;;;1.02;;
28774;SDS011;15926;51.348;6.596;2023-03-31T06:03:17;2.90;;;1.05;;
28774;SDS011;15926;51.348;6.596;2023-03-31T06:05:47;5.85;;;1.10;;
28774;SDS011;15926;51.348;6.596;2023-03-31T06:08:13;2.70;;;0.90;;
28774;SDS011;15926;51.348;6.596;2023-03-31T06:10:39;3.75;;;0.90;;
28774;SDS011;15926;51.348;6.596;2023-03-31T06:13:06;2.50;;;1.02;;
28774;SDS011;15926;51.348;6.596;2023-03-31T06:15:32;4.10;;;1.23;;
28774;SDS011;15926;51.348;6.596;2023-03-31T06:17:58;3.30;;;1.05;;
28774;SDS011;15926;51.348;6.596;2023-03-31T06:20:24;2.90;;;0.93;;
28774;SDS011;15926;51.348;6.596;2023-03-31T06:22:50;3.75;;;0.80;;
28774;SDS011;15926;51.348;6.596;2023-03-31T06:25:16;2.70;;;0.95;;
28774;SDS011;15926;51.348;6.596;2023-03-31T06:27:42;3.78;;;0.90;;
28774;SDS011;15926;51.348;6.596;2023-03-31T06:30:09;1.92;;;0.90;;
28774;SDS011;15926;51.348;6.596;2023-03-31T06:32:35;2.78;;;1.02;;
28774;SDS011;15926;51.348;6.596;2023-03-31T06:35:01;2.78;;;0.85;;
28774;SDS011;15926;51.348;6.596;2023-03-31T06:37:27;7.55;;;1.45;;
28774;SDS011;15926;51.348;6.596;2023-03-31T06:39:53;6.82;;;1.02;;
28774;SDS011;15926;51.348;6.596;2023-03-31T06:42:19;1.58;;;0.80;;
28774;SDS011;15926;51.348;6.596;2023-03-31T06:44:45;2.03;;;1.00;;
28774;SDS011;15926;51.348;6.596;2023-03-31T06:47:11;3.50;;;1.20;;
28774;SDS011;15926;51.348;6.596;2023-03-31T06:49:37;2.65;;;0.98;;
28774;SDS011;15926;51.348;6.596;2023-03-31T06:52:03;2.20;;;0.90;;
28774;SDS011;15926;51.348;6.596;2023-03-31T06:54:29;2.88;;;0.90;;
28774;SDS011;15926;51.348;6.596;2023-03-31T06:56:55;5.30;;;1.08;;
28774;SDS011;15926;51.348;6.596;2023-03-31T06:59:21;2.58;;;1.27;;
28774;SDS011;15926;51.348;6.596;2023-03-31T07:01:47;3.20;;;1.17;;
28774;SDS011;15926;51.348;6.596;2023-03-31T07:04:14;3.17;;;1.00;;
28774;SDS011;15926;51.348;6.596;2023-03-31T07:06:40;3.00;;;1.00;;
28774;SDS011;15926;51.348;6.596;2023-03-31T07:09:06;2.28;;;0.60;;
28774;SDS011;15926;51.348;6.596;2023-03-31T07:11:32;2.05;;;0.70;;
28774;SDS011;15926;51.348;6.596;2023-03-31T07:13:58;3.33;;;1.05;;
28774;SDS011;15926;51.348;6.596;2023-03-31T07:16:24;2.22;;;0.93;;
28774;SDS011;15926;51.348;6.596;2023-03-31T07:18:50;2.83;;;1.10;;
28774;SDS011;15926;51.348;6.596;2023-03-31T07:21:18;4.72;;;0.90;;
28774;SDS011;15926;51.348;6.596;2023-03-31T07:23:45;2.75;;;0.90;;
28774;SDS011;15926;51.348;6.596;2023-03-31T07:26:11;3.83;;;1.33;;
28774;SDS011;15926;51.348;6.596;2023-03-31T07:28:37;7.22;;;0.80;;
28774;SDS011;15926;51.348;6.596;2023-03-31T07:31:09;1.80;;;0.90;;
28774;SDS011;15926;51.348;6.596;2023-03-31T07:33:35;4.15;;;1.25;;
28774;SDS011;15926;51.348;6.596;2023-03-31T07:36:03;1.48;;;0.75;;
28774;SDS011;15926;51.348;6.596;2023-03-31T07:38:29;4.68;;;1.10;;
28774;SDS011;15926;51.348;6.596;2023-03-31T07:40:55;1.67;;;0.85;;
28774;SDS011;15926;51.348;6.596;2023-03-31T07:43:21;4.88;;;1.02;;
28774;SDS011;15926;51.348;6.596;2023-03-31T07:45:47;4.15;;;1.25;;
28774;SDS011;15926;51.348;6.596;2023-03-31T07:48:14;3.58;;;0.80;;
28774;SDS011;15926;51.348;6.596;2023-03-31T07:50:40;2.78;;;1.20;;
28774;SDS011;15926;51.348;6.596;2023-03-31T07:53:06;3.83;;;0.98;;
28774;SDS011;15926;51.348;6.596;2023-03-31T07:55:33;4.15;;;1.15;;
28774;SDS011;15926;51.348;6.596;2023-03-31T07:57:59;1.75;;;0.80;;
28774;SDS011;15926;51.348;6.596;2023-03-31T08:00:25;2.33;;;1.02;;
28774;SDS011;15926;51.348;6.596;2023-03-31T08:02:51;3.78;;;1.05;;
28774;SDS011;15926;51.348;6.596;2023-03-31T08:05:18;3.90;;;1.17;;
28774;SDS011;15926;51.348;6.596;2023-03-31T08:07:45;6.35;;;1.27;;
28774;SDS011;15926;51.348;6.596;2023-03-31T08:10:17;3.78;;;1.00;;
28774;SDS011;15926;51.348;6.596;2023-03-31T08:12:43;3.03;;;1.20;;
28774;SDS011;15926;51.348;6.596;2023-03-31T08:15:09;5.35;;;1.10;;
28774;SDS011;15926;51.348;6.596;2023-03-31T08:17:36;5.03;;;1.45;;
28774;SDS011;15926;51.348;6.596;2023-03-31T08:20:02;4.30;;;1.05;;
28774;SDS011;15926;51.348;6.596;2023-03-31T08:22:30;4.90;;;1.33;;
28774;SDS011;15926;51.348;6.596;2023-03-31T08:24:56;5.40;;;1.80;;
28774;SDS011;15926;51.348;6.596;2023-03-31T08:27:22;6.22;;;1.50;;
28774;SDS011;15926;51.348;6.596;2023-03-31T08:29:50;6.65;;;1.88;;
28774;SDS011;15926;51.348;6.596;2023-03-31T08:32:16;6.13;;;1.45;;
28774;SDS011;15926;51.348;6.596;2023-03-31T08:34:42;3.70;;;1.48;;
28774;SDS011;15926;51.348;6.596;2023-03-31T08:37:09;8.02;;;1.52;;
28774;SDS011;15926;51.348;6.596;2023-03-31T08:39:36;10.07;;;1.45;;
28774;SDS011;15926;51.348;6.596;2023-03-31T08:42:10;5.75;;;1.45;;
28774;SDS011;15926;51.348;6.596;2023-03-31T08:44:38;3.80;;;1.50;;
28774;SDS011;15926;51.348;6.596;2023-03-31T08:47:08;7.55;;;1.52;;
28774;SDS011;15926;51.348;6.596;2023-03-31T08:49:40;7.78;;;1.73;;
28774;SDS011;15926;51.348;6.596;2023-03-31T08:52:08;6.13;;;1.65;;
28774;SDS011;15926;51.348;6.596;2023-03-31T08:54:37;7.18;;;1.58;;
28774;SDS011;15926;51.348;6.596;2023-03-31T08:57:09;4.20;;;1.40;;
28774;SDS011;15926;51.348;6.596;2023-03-31T08:59:37;10.05;;;2.00;;
28774;SDS011;15926;51.348;6.596;2023-03-31T09:02:16;7.07;;;2.10;;
28774;SDS011;15926;51.348;6.596;2023-03-31T09:10:09;11.77;;;3.20;;
28774;SDS011;15926;51.348;6.596;2023-03-31T09:20:51;9.20;;;1.88;;
28774;SDS011;15926;51.348;6.596;2023-03-31T09:23:25;7.00;;;2.28;;
28774;SDS011;15926;51.348;6.596;2023-03-31T09:25:52;4.90;;;1.50;;
28774;SDS011;15926;51.348;6.596;2023-03-31T09:28:20;6.05;;;1.70;;
28774;SDS011;15926;51.348;6.596;2023-03-31T09:30:46;5.68;;;1.80;;
28774;SDS011;15926;51.348;6.596;2023-03-31T09:33:17;10.57;;;1.55;;
28774;SDS011;15926;51.348;6.596;2023-03-31T09:35:43;5.97;;;1.55;;
28774;SDS011;15926;51.348;6.596;2023-03-31T09:38:13;7.85;;;1.88;;
28774;SDS011;15926;51.348;6.596;2023-03-31T09:40:39;9.05;;;1.65;;
28774;SDS011;15926;51.348;6.596;2023-03-31T09:43:09;9.55;;;1.60;;
28774;SDS011;15926;51.348;6.596;2023-03-31T09:45:37;10.57;;;1.60;;
28774;SDS011;15926;51.348;6.596;2023-03-31T09:48:05;7.20;;;1.67;;
28774;SDS011;15926;51.348;6.596;2023-03-31T09:50:35;9.90;;;1.77;;
28774;SDS011;15926;51.348;6.596;2023-03-31T09:53:06;9.32;;;1.65;;
28774;SDS011;15926;51.348;6.596;2023-03-31T09:55:43;9.45;;;1.52;;
28774;SDS011;15926;51.348;6.596;2023-03-31T09:58:13;9.45;;;2.42;;
28774;SDS011;15926;51.348;6.596;2023-03-31T10:00:40;7.80;;;1.85;;
28774;SDS011;15926;51.348;6.596;2023-03-31T10:03:09;10.85;;;1.40;;
28774;SDS011;15926;51.348;6.596;2023-03-31T10:05:37;7.18;;;1.55;;
28774;SDS011;15926;51.348;6.596;2023-03-31T10:10:37;9.13;;;1.85;;
28774;SDS011;15926;51.348;6.596;2023-03-31T10:13:06;7.40;;;2.33;;
28774;SDS011;15926;51.348;6.596;2023-03-31T10:15:35;7.78;;;2.10;;
28774;SDS011;15926;51.348;6.596;2023-03-31T10:18:02;9.88;;;1.75;;
28774;SDS011;15926;51.348;6.596;2023-03-31T10:20:37;7.50;;;2.35;;
28774;SDS011;15926;51.348;6.596;2023-03-31T10:25:48;5.70;;;1.52;;
28774;SDS011;15926;51.348;6.596;2023-03-31T10:28:16;8.60;;;2.13;;
28774;SDS011;15926;51.348;6.596;2023-03-31T10:30:46;9.50;;;1.83;;
28774;SDS011;15926;51.348;6.596;2023-03-31T10:33:14;8.10;;;1.88;;
28774;SDS011;15926;51.348;6.596;2023-03-31T10:35:41;7.88;;;2.00;;
28774;SDS011;15926;51.348;6.596;2023-03-31T10:38:12;6.15;;;1.77;;
28774;SDS011;15926;51.348;6.596;2023-03-31T10:40:40;15.60;;;2.80;;
28774;SDS011;15926;51.348;6.596;2023-03-31T10:43:14;8.18;;;2.45;;
28774;SDS011;15926;51.348;6.596;2023-03-31T10:45:48;9.45;;;1.63;;
28774;SDS011;15926;51.348;6.596;2023-03-31T10:48:19;8.10;;;1.83;;
28774;SDS011;15926;51.348;6.596;2023-03-31T10:50:48;4.88;;;1.55;;
28774;SDS011;15926;51.348;6.596;2023-03-31T10:53:14;12.23;;;2.05;;
28774;SDS011;15926;51.348;6.596;2023-03-31T10:55:57;9.75;;;1.55;;
28774;SDS011;15926;51.348;6.596;2023-03-31T11:01:02;3.40;;;0.80;;
28774;SDS011;15926;51.348;6.596;2023-03-31T11:06:18;2.40;;;0.95;;
28774;SDS011;15926;51.348;6.596;2023-03-31T11:16:16;2.28;;;0.90;;
28774;SDS011;15926;51.348;6.596;2023-03-31T11:29:05;4.80;;;1.20;;
28774;SDS011;15926;51.348;6.596;2023-03-31T11:41:43;9.32;;;1.83;;
28774;SDS011;15926;51.348;6.596;2023-03-31T11:44:12;3.55;;;1.00;;
28774;SDS011;15926;51.348;6.596;2023-03-31T11:49:24;5.40;;;1.67;;
28774;SDS011;15926;51.348;6.596;2023-03-31T11:51:56;5.63;;;1.25;;
28774;SDS011;15926;51.348;6.596;2023-03-31T11:54:39;5.65;;;1.42;;
28774;SDS011;15926;51.348;6.596;2023-03-31T11:57:16;3.40;;;1.20;;
28774;SDS011;15926;51.348;6.596;2023-03-31T11:59:43;7.00;;;1.58;;
28774;SDS011;15926;51.348;6.596;2023-03-31T12:04:38;5.43;;;1.55;;
28774;SDS011;15926;51.348;6.596;2023-03-31T12:10:12;6.53;;;1.58;;
28774;SDS011;15926;51.348;6.596;2023-03-31T12:12:41;10.57;;;2.15;;
28774;SDS011;15926;51.348;6.596;2023-03-31T12:15:13;7.67;;;1.60;;
28774;SDS011;15926;51.348;6.596;2023-03-31T12:17:42;9.18;;;1.77;;
28774;SDS011;15926;51.348;6.596;2023-03-31T12:20:17;6.55;;;1.70;;
28774;SDS011;15926;51.348;6.596;2023-03-31T12:22:46;8.82;;;1.77;;
28774;SDS011;15926;51.348;6.596;2023-03-31T12:25:18;8.70;;;1.90;;
28774;SDS011;15926;51.348;6.596;2023-03-31T12:27:50;7.57;;;1.60;;
28774;SDS011;15926;51.348;6.596;2023-03-31T12:32:46;8.57;;;1.80;;
28774;SDS011;15926;51.348;6.596;2023-03-31T12:35:34;4.55;;;1.40;;
28774;SDS011;15926;51.348;6.596;2023-03-31T12:46:02;7.45;;;1.60;;
28774;SDS011;15926;51.348;6.596;2023-03-31T12:53:49;5.40;;;1.60;;
28774;SDS011;15926;51.348;6.596;2023-03-31T12:56:19;4.80;;;1.42;;
28774;SDS011;15926;51.348;6.596;2023-03-31T12:58:45;8.45;;;1.85;;
28774;SDS011;15926;51.348;6.596;2023-03-31T13:06:11;8.07;;;1.77;;
28774;SDS011;15926;51.348;6.596;2023-03-31T13:16:37;5.43;;;1.10;;
28774;SDS011;15926;51.348;6.596;2023-03-31T13:19:03;4.78;;;1.10;;
28774;SDS011;15926;51.348;6.596;2023-03-31T13:21:30;5.60;;;1.20;;
28774;SDS011;15926;51.348;6.596;2023-03-31T13:24:02;4.30;;;1.00;;
28774;SDS011;15926;51.348;6.596;2023-03-31T13:32:21;5.05;;;0.93;;
28774;SDS011;15926;51.348;6.596;2023-03-31T13:34:21;4.60;;;1.00;;
28774;SDS011;15926;51.348;6.596;2023-03-31T13:36:49;7.03;;;1.55;;
28774;SDS011;15926;51.348;6.596;2023-03-31T13:44:50;5.13;;;1.20;;
28774;SDS011;15926;51.348;6.596;2023-03-31T13:50:20;4.13;;;1.00;;
28774;SDS011;15926;51.348;6.596;2023-03-31T13:58:31;5.50;;;1.60;;
28774;SDS011;15926;51.348;6.596;2023-03-31T14:03:47;4.15;;;1.67;;
28774;SDS011;15926;51.348;6.596;2023-03-31T14:08:56;5.03;;;1.77;;
28774;SDS011;15926;51.348;6.596;2023-03-31T14:11:28;4.50;;;1.40;;
28774;SDS011;15926;51.348;6.596;2023-03-31T14:13:58;7.63;;;1.13;;
28774;SDS011;15926;51.348;6.596;2023-03-31T14:16:25;4.72;;;1.38;;
28774;SDS011;15926;51.348;6.596;2023-03-31T14:18:54;1.45;;;0.77;;
28774;SDS011;15926;51.348;6.596;2023-03-31T14:28:52;7.63;;;1.15;;
28774;SDS011;15926;51.348;6.596;2023-03-31T14:38:43;3.35;;;1.00;;
28774;SDS011;15926;51.348;6.596;2023-03-31T14:41:14;3.85;;;1.30;;
28774;SDS011;15926;51.348;6.596;2023-03-31T14:43:44;9.40;;;1.27;;
28774;SDS011;15926;51.348;6.596;2023-03-31T14:46:12;4.47;;;1.00;;
28774;SDS011;15926;51.348;6.596;2023-03-31T14:48:44;4.90;;;1.55;;
28774;SDS011;15926;51.348;6.596;2023-03-31T14:51:12;6.43;;;1.80;;
28774;SDS011;15926;51.348;6.596;2023-03-31T14:53:47;3.65;;;1.08;;
28774;SDS011;15926;51.348;6.596;2023-03-31T14:56:14;2.83;;;1.52;;
28774;SDS011;15926;51.348;6.596;2023-03-31T14:58:42;5.63;;;0.95;;
28774;SDS011;15926;51.348;6.596;2023-03-31T15:01:11;3.95;;;1.10;;
28774;SDS011;15926;51.348;6.596;2023-03-31T15:03:41;6.82;;;1.88;;
28774;SDS011;15926;51.348;6.596;2023-03-31T15:06:07;5.50;;;1.23;;
28774;SDS011;15926;51.348;6.596;2023-03-31T15:08:34;11.32;;;1.25;;
28774;SDS011;15926;51.348;6.596;2023-03-31T15:11:02;7.70;;;1.33;;
28774;SDS011;15926;51.348;6.596;2023-03-31T15:13:33;3.92;;;1.60;;
28774;SDS011;15926;51.348;6.596;2023-03-31T15:16:18;6.45;;;1.52;;
28774;SDS011;15926;51.348;6.596;2023-03-31T15:18:44;7.22;;;1.25;;
28774;SDS011;15926;51.348;6.596;2023-03-31T15:21:18;4.13;;;1.52;;
28774;SDS011;15926;51.348;6.596;2023-03-31T15:23:44;3.40;;;1.10;;
28774;SDS011;15926;51.348;6.596;2023-03-31T15:26:10;4.40;;;1.13;;
28774;SDS011;15926;51.348;6.596;2023-03-31T15:28:47;4.78;;;1.10;;
28774;SDS011;15926;51.348;6.596;2023-03-31T15:31:15;4.35;;;1.10;;
28774;SDS011;15926;51.348;6.596;2023-03-31T15:33:41;4.53;;;1.20;;
28774;SDS011;15926;51.348;6.596;2023-03-31T15:36:07;2.28;;;0.75;;
28774;SDS011;15926;51.348;6.596;2023-03-31T15:38:35;4.57;;;1.00;;
28774;SDS011;15926;51.348;6.596;2023-03-31T15:41:02;3.00;;;1.10;;
28774;SDS011;15926;51.348;6.596;2023-03-31T15:43:29;3.47;;;1.00;;
28774;SDS011;15926;51.348;6.596;2023-03-31T15:45:59;1.92;;;0.70;;
28774;SDS011;15926;51.348;6.596;2023-03-31T15:48:33;5.70;;;0.77;;
28774;SDS011;15926;51.348;6.596;2023-03-31T15:53:45;4.47;;;1.08;;
28774;SDS011;15926;51.348;6.596;2023-03-31T15:56:23;2.92;;;1.35;;
28774;SDS011;15926;51.348;6.596;2023-03-31T16:01:26;2.83;;;1.20;;
28774;SDS011;15926;51.348;6.596;2023-03-31T16:03:54;3.97;;;0.88;;
28774;SDS011;15926;51.348;6.596;2023-03-31T16:09:06;1.30;;;0.60;;
28774;SDS011;15926;51.348;6.596;2023-03-31T16:11:40;5.20;;;0.88;;
28774;SDS011;15926;51.348;6.596;2023-03-31T16:14:08;3.70;;;0.82;;
28774;SDS011;15926;51.348;6.596;2023-03-31T16:16:35;2.27;;;0.77;;
28774;SDS011;15926;51.348;6.596;2023-03-31T16:19:02;2.83;;;0.80;;
28774;SDS011;15926;51.348;6.596;2023-03-31T16:21:33;4.50;;;1.00;;
28774;SDS011;15926;51.348;6.596;2023-03-31T16:24:00;3.38;;;1.00;;
28774;SDS011;15926;51.348;6.596;2023-03-31T16:26:27;2.80;;;0.68;;
28774;SDS011;15926;51.348;6.596;2023-03-31T16:28:53;2.85;;;0.65;;
28774;SDS011;15926;51.348;6.596;2023-03-31T16:33:54;3.30;;;0.80;;
28774;SDS011;15926;51.348;6.596;2023-03-31T16:36:21;2.08;;;0.77;;
28774;SDS011;15926;51.348;6.596;2023-03-31T16:38:47;3.20;;;0.77;;
28774;SDS011;15926;51.348;6.596;2023-03-31T16:41:16;1.98;;;0.80;;
28774;SDS011;15926;51.348;6.596;2023-03-31T16:43:43;1.70;;;0.70;;
28774;SDS011;15926;51.348;6.596;2023-03-31T16:46:10;1.63;;;0.60;;
28774;SDS011;15926;51.348;6.596;2023-03-31T16:48:36;1.02;;;0.60;;
28774;SDS011;15926;51.348;6.596;2023-03-31T16:51:02;3.25;;;0.60;;
28774;SDS011;15926;51.348;6.596;2023-03-31T16:53:33;0.88;;;0.68;;
28774;SDS011;15926;51.348;6.596;2023-03-31T16:56:00;1.73;;;0.70;;
28774;SDS011;15926;51.348;6.596;2023-03-31T16:58:26;1.60;;;0.70;;
28774;SDS011;15926;51.348;6.596;2023-03-31T17:03:21;1.40;;;0.50;;
28774;SDS011;15926;51.348;6.596;2023-03-31T17:05:48;4.25;;;0.95;;
28774;SDS011;15926;51.348;6.596;2023-03-31T17:10:49;1.40;;;0.52;;
28774;SDS011;15926;51.348;6.596;2023-03-31T17:13:15;1.80;;;0.65;;
28774;SDS011;15926;51.348;6.596;2023-03-31T17:15:41;1.30;;;0.68;;
28774;SDS011;15926;51.348;6.596;2023-03-31T17:18:07;3.05;;;0.77;;
28774;SDS011;15926;51.348;6.596;2023-03-31T17:20:33;4.82;;;0.85;;
28774;SDS011;15926;51.348;6.596;2023-03-31T17:22:59;2.22;;;0.88;;
28774;SDS011;15926;51.348;6.596;2023-03-31T17:25:25;2.03;;;0.77;;
28774;SDS011;15926;51.348;6.596;2023-03-31T17:27:51;1.85;;;0.70;;
28774;SDS011;15926;51.348;6.596;2023-03-31T17:30:19;2.17;;;0.70;;
28774;SDS011;15926;51.348;6.596;2023-03-31T17:32:45;2.05;;;0.60;;
28774;SDS011;15926;51.348;6.596;2023-03-31T17:35:12;3.63;;;0.80;;
28774;SDS011;15926;51.348;6.596;2023-03-31T17:37:44;3.22;;;1.40;;
28774;SDS011;15926;51.348;6.596;2023-03-31T17:40:10;2.13;;;1.00;;
28774;SDS011;15926;51.348;6.596;2023-03-31T17:42:37;0.80;;;0.60;;
28774;SDS011;15926;51.348;6.596;2023-03-31T17:45:03;1.05;;;0.80;;
28774;SDS011;15926;51.348;6.596;2023-03-31T17:47:29;1.83;;;0.52;;
28774;SDS011;15926;51.348;6.596;2023-03-31T17:49:57;1.38;;;0.60;;
28774;SDS011;15926;51.348;6.596;2023-03-31T17:52:23;4.68;;;1.02;;
28774;SDS011;15926;51.348;6.596;2023-03-31T17:54:49;2.60;;;0.80;;
28774;SDS011;15926;51.348;6.596;2023-03-31T17:57:15;2.58;;;0.90;;